sensor_id;sensor_type;location;lat;lon;timestamp;pressure;altitude;pressure_sealevel;temperature;humidity
43115;BME280;28727;50.068;14.452;2023-05-29T00:01:39;99430.00;;;16.24;45.60
43115;BME280;28727;50.068;14.452;2023-05-29T00:04:15;99428.78;;;16.20;45.70
43115;BME280;28727;50.068;14.452;2023-05-29T00:06:47;99423.44;;;16.13;45.92
43115;BME280;28727;50.068;14.452;2023-05-29T00:09:19;99430.81;;;16.11;45.95
43115;BME280;28727;50.068;14.452;2023-05-29T00:11:51;99431.59;;;16.05;46.07
43115;BME280;28727;50.068;14.452;2023-05-29T00:14:25;99435.72;;;16.01;46.23
43115;BME280;28727;50.068;14.452;2023-05-29T00:16:57;99432.84;;;15.96;46.60
43115;BME280;28727;50.068;14.452;2023-05-29T00:19:28;99427.25;;;15.91;46.77
43115;BME280;28727;50.068;14.452;2023-05-29T00:22:00;99431.34;;;15.87;46.73
43115;BME280;28727;50.068;14.452;2023-05-29T00:24:32;99436.28;;;15.83;46.83
43115;BME280;28727;50.068;14.452;2023-05-29T00:27:04;99435.00;;;15.79;46.83
43115;BME280;28727;50.068;14.452;2023-05-29T00:29:36;99433.59;;;15.77;46.79
43115;BME280;28727;50.068;14.452;2023-05-29T00:32:10;99430.28;;;15.75;47.17
43115;BME280;28727;50.068;14.452;2023-05-29T00:34:42;99434.56;;;15.69;46.89
43115;BME280;28727;50.068;14.452;2023-05-29T00:37:15;99432.31;;;15.66;47.12
43115;BME280;28727;50.068;14.452;2023-05-29T00:39:50;99439.06;;;15.62;47.78
43115;BME280;28727;50.068;14.452;2023-05-29T00:42:22;99435.75;;;15.53;47.75
43115;BME280;28727;50.068;14.452;2023-05-29T00:44:54;99436.09;;;15.50;48.11
43115;BME280;28727;50.068;14.452;2023-05-29T00:47:26;99435.50;;;15.48;48.20
43115;BME280;28727;50.068;14.452;2023-05-29T00:49:58;99428.91;;;15.44;48.28
43115;BME280;28727;50.068;14.452;2023-05-29T00:52:31;99429.50;;;15.40;48.31
43115;BME280;28727;50.068;14.452;2023-05-29T00:55:03;99429.47;;;15.33;48.70
43115;BME280;28727;50.068;14.452;2023-05-29T00:57:36;99430.72;;;15.31;49.15
43115;BME280;28727;50.068;14.452;2023-05-29T01:00:11;99427.78;;;15.26;49.24
43115;BME280;28727;50.068;14.452;2023-05-29T01:02:48;99422.03;;;15.22;49.49
43115;BME280;28727;50.068;14.452;2023-05-29T01:05:20;99429.41;;;15.20;49.50
43115;BME280;28727;50.068;14.452;2023-05-29T01:07:53;99425.06;;;15.12;50.17
43115;BME280;28727;50.068;14.452;2023-05-29T01:10:26;99422.78;;;15.09;50.34
43115;BME280;28727;50.068;14.452;2023-05-29T01:27:06;99427.75;;;14.85;51.89
43115;BME280;28727;50.068;14.452;2023-05-29T01:29:42;99436.31;;;14.80;52.21
43115;BME280;28727;50.068;14.452;2023-05-29T01:32:15;99440.19;;;14.78;52.14
43115;BME280;28727;50.068;14.452;2023-05-29T01:34:49;99430.50;;;14.70;52.43
43115;BME280;28727;50.068;14.452;2023-05-29T01:37:21;99439.91;;;14.66;53.20
43115;BME280;28727;50.068;14.452;2023-05-29T01:39:53;99433.72;;;14.59;53.59
43115;BME280;28727;50.068;14.452;2023-05-29T01:42:27;99430.22;;;14.58;53.54
43115;BME280;28727;50.068;14.452;2023-05-29T01:45:01;99429.16;;;14.53;54.25
43115;BME280;28727;50.068;14.452;2023-05-29T01:47:36;99429.34;;;14.51;54.56
43115;BME280;28727;50.068;14.452;2023-05-29T01:50:09;99427.69;;;14.50;54.30
43115;BME280;28727;50.068;14.452;2023-05-29T01:52:42;99431.56;;;14.48;54.61
43115;BME280;28727;50.068;14.452;2023-05-29T01:55:14;99426.00;;;14.43;54.74
43115;BME280;28727;50.068;14.452;2023-05-29T01:57:46;99419.63;;;14.37;55.12
43115;BME280;28727;50.068;14.452;2023-05-29T02:00:21;99421.97;;;14.32;55.57
43115;BME280;28727;50.068;14.452;2023-05-29T02:02:53;99422.19;;;14.30;55.32
43115;BME280;28727;50.068;14.452;2023-05-29T02:05:25;99423.56;;;14.26;55.60
43115;BME280;28727;50.068;14.452;2023-05-29T02:07:57;99417.63;;;14.24;55.63
43115;BME280;28727;50.068;14.452;2023-05-29T02:10:29;99420.47;;;14.23;55.63
43115;BME280;28727;50.068;14.452;2023-05-29T02:13:03;99417.75;;;14.16;56.12
43115;BME280;28727;50.068;14.452;2023-05-29T02:15:35;99418.16;;;14.13;56.27
43115;BME280;28727;50.068;14.452;2023-05-29T02:18:14;99414.22;;;14.09;56.77
43115;BME280;28727;50.068;14.452;2023-05-29T02:20:46;99412.56;;;14.08;56.40
43115;BME280;28727;50.068;14.452;2023-05-29T02:23:25;99412.53;;;14.02;57.03
43115;BME280;28727;50.068;14.452;2023-05-29T02:25:57;99410.22;;;13.99;56.76
43115;BME280;28727;50.068;14.452;2023-05-29T02:28:32;99414.28;;;13.94;56.89
43115;BME280;28727;50.068;14.452;2023-05-29T02:31:04;99412.19;;;13.90;57.15
43115;BME280;28727;50.068;14.452;2023-05-29T02:33:36;99412.72;;;13.85;57.71
43115;BME280;28727;50.068;14.452;2023-05-29T02:36:07;99405.16;;;13.82;58.21
43115;BME280;28727;50.068;14.452;2023-05-29T02:38:42;99418.63;;;13.81;57.79
43115;BME280;28727;50.068;14.452;2023-05-29T02:41:15;99410.75;;;13.73;58.26
43115;BME280;28727;50.068;14.452;2023-05-29T02:43:47;99408.50;;;13.70;58.38
43115;BME280;28727;50.068;14.452;2023-05-29T02:46:19;99409.69;;;13.67;58.46
43115;BME280;28727;50.068;14.452;2023-05-29T02:48:53;99406.75;;;13.62;59.06
43115;BME280;28727;50.068;14.452;2023-05-29T02:51:25;99406.16;;;13.60;59.07
43115;BME280;28727;50.068;14.452;2023-05-29T02:53:56;99416.75;;;13.60;59.50
43115;BME280;28727;50.068;14.452;2023-05-29T02:56:29;99408.97;;;13.59;58.91
43115;BME280;28727;50.068;14.452;2023-05-29T02:59:01;99413.75;;;13.48;59.30
43115;BME280;28727;50.068;14.452;2023-05-29T03:01:33;99412.22;;;13.39;60.04
43115;BME280;28727;50.068;14.452;2023-05-29T03:04:05;99414.03;;;13.39;59.91
43115;BME280;28727;50.068;14.452;2023-05-29T03:06:38;99418.34;;;13.40;59.94
43115;BME280;28727;50.068;14.452;2023-05-29T03:09:10;99422.81;;;13.39;59.96
43115;BME280;28727;50.068;14.452;2023-05-29T03:11:44;99421.56;;;13.35;60.54
43115;BME280;28727;50.068;14.452;2023-05-29T03:14:16;99417.69;;;13.38;60.28
43115;BME280;28727;50.068;14.452;2023-05-29T03:16:50;99424.22;;;13.35;60.32
43115;BME280;28727;50.068;14.452;2023-05-29T03:19:22;99423.56;;;13.33;60.48
43115;BME280;28727;50.068;14.452;2023-05-29T03:21:54;99435.09;;;13.26;60.99
43115;BME280;28727;50.068;14.452;2023-05-29T03:24:26;99427.13;;;13.26;61.00
43115;BME280;28727;50.068;14.452;2023-05-29T03:26:59;99427.78;;;13.28;60.57
43115;BME280;28727;50.068;14.452;2023-05-29T03:29:34;99428.97;;;13.25;60.83
43115;BME280;28727;50.068;14.452;2023-05-29T03:32:07;99427.59;;;13.29;60.50
43115;BME280;28727;50.068;14.452;2023-05-29T03:34:39;99427.13;;;13.26;60.88
43115;BME280;28727;50.068;14.452;2023-05-29T03:37:12;99430.16;;;13.23;60.56
43115;BME280;28727;50.068;14.452;2023-05-29T03:39:47;99432.97;;;13.21;60.99
43115;BME280;28727;50.068;14.452;2023-05-29T03:42:19;99439.59;;;13.25;60.84
43115;BME280;28727;50.068;14.452;2023-05-29T03:44:54;99447.00;;;13.30;60.82
43115;BME280;28727;50.068;14.452;2023-05-29T03:47:27;99440.22;;;13.27;60.82
43115;BME280;28727;50.068;14.452;2023-05-29T03:49:59;99448.19;;;13.13;60.93
43115;BME280;28727;50.068;14.452;2023-05-29T03:52:35;99443.56;;;13.06;61.54
43115;BME280;28727;50.068;14.452;2023-05-29T03:55:08;99452.47;;;13.13;61.34
43115;BME280;28727;50.068;14.452;2023-05-29T03:57:41;99453.03;;;13.24;61.20
43115;BME280;28727;50.068;14.452;2023-05-29T04:00:14;99452.75;;;13.33;60.99
43115;BME280;28727;50.068;14.452;2023-05-29T04:02:50;99457.59;;;13.44;60.80
43115;BME280;28727;50.068;14.452;2023-05-29T04:05:25;99448.06;;;13.50;60.48
43115;BME280;28727;50.068;14.452;2023-05-29T04:07:56;99451.72;;;13.49;60.44
43115;BME280;28727;50.068;14.452;2023-05-29T04:10:45;99457.09;;;13.56;60.37
43115;BME280;28727;50.068;14.452;2023-05-29T04:13:18;99457.19;;;13.62;60.26
43115;BME280;28727;50.068;14.452;2023-05-29T04:15:49;99462.75;;;13.67;60.25
43115;BME280;28727;50.068;14.452;2023-05-29T04:18:25;99461.19;;;13.73;60.03
43115;BME280;28727;50.068;14.452;2023-05-29T04:21:00;99471.72;;;13.81;59.97
43115;BME280;28727;50.068;14.452;2023-05-29T04:23:32;99464.84;;;13.86;59.75
43115;BME280;28727;50.068;14.452;2023-05-29T04:26:04;99465.91;;;13.92;59.87
43115;BME280;28727;50.068;14.452;2023-05-29T04:28:39;99468.66;;;13.99;58.77
43115;BME280;28727;50.068;14.452;2023-05-29T04:31:11;99480.34;;;14.04;59.01
43115;BME280;28727;50.068;14.452;2023-05-29T04:33:45;99484.09;;;14.10;58.37
43115;BME280;28727;50.068;14.452;2023-05-29T04:36:17;99485.94;;;14.09;58.96
43115;BME280;28727;50.068;14.452;2023-05-29T04:38:52;99482.16;;;14.18;58.48
43115;BME280;28727;50.068;14.452;2023-05-29T04:41:27;99494.94;;;14.29;58.05
43115;BME280;28727;50.068;14.452;2023-05-29T04:44:04;99500.78;;;14.40;57.97
43115;BME280;28727;50.068;14.452;2023-05-29T04:46:45;99510.09;;;14.50;57.56
43115;BME280;28727;50.068;14.452;2023-05-29T04:49:19;99506.31;;;14.59;57.64
43115;BME280;28727;50.068;14.452;2023-05-29T04:51:52;99496.81;;;14.71;57.27
43115;BME280;28727;50.068;14.452;2023-05-29T04:54:24;99498.47;;;14.79;56.47
43115;BME280;28727;50.068;14.452;2023-05-29T04:56:59;99500.66;;;14.90;56.20
43115;BME280;28727;50.068;14.452;2023-05-29T04:59:34;99499.34;;;15.07;56.19
43115;BME280;28727;50.068;14.452;2023-05-29T05:02:07;99508.44;;;15.20;55.49
43115;BME280;28727;50.068;14.452;2023-05-29T05:04:39;99505.47;;;15.36;55.01
43115;BME280;28727;50.068;14.452;2023-05-29T05:07:11;99500.53;;;15.61;54.29
43115;BME280;28727;50.068;14.452;2023-05-29T05:09:43;99513.13;;;15.86;53.54
43115;BME280;28727;50.068;14.452;2023-05-29T05:12:23;99502.94;;;16.03;52.94
43115;BME280;28727;50.068;14.452;2023-05-29T05:14:55;99502.34;;;16.14;51.67
43115;BME280;28727;50.068;14.452;2023-05-29T05:17:28;99504.44;;;16.19;50.75
43115;BME280;28727;50.068;14.452;2023-05-29T05:20:01;99508.13;;;16.24;50.03
43115;BME280;28727;50.068;14.452;2023-05-29T05:22:33;99506.09;;;16.33;50.34
43115;BME280;28727;50.068;14.452;2023-05-29T05:25:05;99513.72;;;16.49;49.93
43115;BME280;28727;50.068;14.452;2023-05-29T05:27:37;99510.91;;;16.70;49.10
43115;BME280;28727;50.068;14.452;2023-05-29T05:30:09;99504.75;;;16.90;48.58
43115;BME280;28727;50.068;14.452;2023-05-29T05:32:42;99509.03;;;17.10;48.13
43115;BME280;28727;50.068;14.452;2023-05-29T05:35:14;99504.28;;;17.32;47.59
43115;BME280;28727;50.068;14.452;2023-05-29T05:37:46;99505.47;;;17.56;46.85
43115;BME280;28727;50.068;14.452;2023-05-29T05:40:18;99504.22;;;17.78;45.79
43115;BME280;28727;50.068;14.452;2023-05-29T05:43:03;99515.66;;;17.92;44.63
43115;BME280;28727;50.068;14.452;2023-05-29T05:45:53;99518.09;;;18.00;44.21
43115;BME280;28727;50.068;14.452;2023-05-29T05:48:25;99524.66;;;18.04;44.21
43115;BME280;28727;50.068;14.452;2023-05-29T05:50:57;99522.09;;;18.22;44.22
43115;BME280;28727;50.068;14.452;2023-05-29T05:53:29;99522.00;;;18.42;43.67
43115;BME280;28727;50.068;14.452;2023-05-29T05:56:03;99522.66;;;18.69;43.57
43115;BME280;28727;50.068;14.452;2023-05-29T05:58:34;99526.59;;;18.91;43.23
43115;BME280;28727;50.068;14.452;2023-05-29T06:01:07;99524.13;;;19.14;43.03
43115;BME280;28727;50.068;14.452;2023-05-29T06:03:39;99521.06;;;19.36;41.62
43115;BME280;28727;50.068;14.452;2023-05-29T06:06:14;99520.84;;;19.37;41.71
43115;BME280;28727;50.068;14.452;2023-05-29T06:08:47;99519.97;;;19.43;40.96
43115;BME280;28727;50.068;14.452;2023-05-29T06:11:21;99523.59;;;19.55;41.25
43115;BME280;28727;50.068;14.452;2023-05-29T06:13:54;99519.09;;;19.68;40.53
43115;BME280;28727;50.068;14.452;2023-05-29T06:16:32;99524.84;;;19.89;40.04
43115;BME280;28727;50.068;14.452;2023-05-29T06:19:07;99518.91;;;20.17;39.11
43115;BME280;28727;50.068;14.452;2023-05-29T06:21:55;99518.00;;;20.23;39.36
43115;BME280;28727;50.068;14.452;2023-05-29T06:24:27;99526.19;;;20.28;39.11
43115;BME280;28727;50.068;14.452;2023-05-29T06:27:00;99531.84;;;20.38;39.33
43115;BME280;28727;50.068;14.452;2023-05-29T06:29:33;99526.63;;;20.73;38.42
43115;BME280;28727;50.068;14.452;2023-05-29T06:32:05;99534.00;;;21.01;38.10
43115;BME280;28727;50.068;14.452;2023-05-29T06:34:37;99527.75;;;21.19;37.61
43115;BME280;28727;50.068;14.452;2023-05-29T06:37:09;99528.69;;;21.24;36.91
43115;BME280;28727;50.068;14.452;2023-05-29T06:39:45;99528.91;;;21.35;36.14
43115;BME280;28727;50.068;14.452;2023-05-29T06:42:17;99534.97;;;21.53;36.37
43115;BME280;28727;50.068;14.452;2023-05-29T06:44:49;99529.59;;;21.65;36.00
43115;BME280;28727;50.068;14.452;2023-05-29T06:47:21;99535.03;;;21.93;35.93
43115;BME280;28727;50.068;14.452;2023-05-29T06:49:54;99530.47;;;22.05;34.90
43115;BME280;28727;50.068;14.452;2023-05-29T06:52:26;99532.38;;;22.22;34.78
43115;BME280;28727;50.068;14.452;2023-05-29T06:55:17;99532.56;;;22.43;34.64
43115;BME280;28727;50.068;14.452;2023-05-29T06:57:49;99535.66;;;22.52;34.25
43115;BME280;28727;50.068;14.452;2023-05-29T07:00:21;99543.03;;;22.85;33.59
43115;BME280;28727;50.068;14.452;2023-05-29T07:03:02;99527.81;;;23.29;33.43
43115;BME280;28727;50.068;14.452;2023-05-29T07:05:34;99525.41;;;23.66;32.85
43115;BME280;28727;50.068;14.452;2023-05-29T07:08:06;99527.09;;;23.94;31.33
43115;BME280;28727;50.068;14.452;2023-05-29T07:10:38;99526.19;;;24.27;30.14
43115;BME280;28727;50.068;14.452;2023-05-29T07:13:15;99531.59;;;24.27;28.54
43115;BME280;28727;50.068;14.452;2023-05-29T07:15:50;99531.31;;;24.06;28.12
43115;BME280;28727;50.068;14.452;2023-05-29T07:18:28;99529.81;;;23.39;29.34
43115;BME280;28727;50.068;14.452;2023-05-29T07:21:00;99536.56;;;23.19;28.56
43115;BME280;28727;50.068;14.452;2023-05-29T07:23:34;99538.34;;;22.80;28.32
43115;BME280;28727;50.068;14.452;2023-05-29T07:26:06;99533.22;;;22.96;29.12
43115;BME280;28727;50.068;14.452;2023-05-29T07:28:38;99540.13;;;23.42;28.49
43115;BME280;28727;50.068;14.452;2023-05-29T07:31:10;99538.41;;;23.52;28.23
43115;BME280;28727;50.068;14.452;2023-05-29T07:33:42;99533.53;;;23.49;28.93
43115;BME280;28727;50.068;14.452;2023-05-29T07:36:15;99534.88;;;23.68;28.54
43115;BME280;28727;50.068;14.452;2023-05-29T07:38:48;99521.41;;;23.90;28.28
43115;BME280;28727;50.068;14.452;2023-05-29T07:41:22;99527.94;;;23.73;28.10
43115;BME280;28727;50.068;14.452;2023-05-29T07:43:56;99531.44;;;23.73;29.27
43115;BME280;28727;50.068;14.452;2023-05-29T07:46:28;99529.63;;;24.00;28.26
43115;BME280;28727;50.068;14.452;2023-05-29T07:49:19;99536.53;;;24.13;27.87
43115;BME280;28727;50.068;14.452;2023-05-29T07:51:51;99537.84;;;23.89;27.45
43115;BME280;28727;50.068;14.452;2023-05-29T07:54:24;99538.59;;;24.06;27.47
43115;BME280;28727;50.068;14.452;2023-05-29T07:56:56;99538.44;;;24.18;27.39
43115;BME280;28727;50.068;14.452;2023-05-29T07:59:29;99542.28;;;24.43;27.04
43115;BME280;28727;50.068;14.452;2023-05-29T08:02:03;99537.72;;;24.76;26.38
43115;BME280;28727;50.068;14.452;2023-05-29T08:04:48;99540.06;;;24.89;25.66
43115;BME280;28727;50.068;14.452;2023-05-29T08:07:20;99539.63;;;25.02;25.71
43115;BME280;28727;50.068;14.452;2023-05-29T08:09:53;99544.13;;;24.92;25.70
43115;BME280;28727;50.068;14.452;2023-05-29T08:12:25;99545.88;;;24.81;25.50
43115;BME280;28727;50.068;14.452;2023-05-29T08:14:59;99549.72;;;24.85;26.12
43115;BME280;28727;50.068;14.452;2023-05-29T08:17:31;99540.56;;;25.23;25.68
43115;BME280;28727;50.068;14.452;2023-05-29T08:20:04;99548.25;;;25.36;25.25
43115;BME280;28727;50.068;14.452;2023-05-29T08:22:41;99555.03;;;25.81;25.28
43115;BME280;28727;50.068;14.452;2023-05-29T08:25:13;99551.22;;;25.77;24.13
43115;BME280;28727;50.068;14.452;2023-05-29T08:27:45;99546.03;;;25.70;24.68
43115;BME280;28727;50.068;14.452;2023-05-29T08:30:20;99539.09;;;25.84;24.45
43115;BME280;28727;50.068;14.452;2023-05-29T08:32:53;99545.31;;;25.85;24.10
43115;BME280;28727;50.068;14.452;2023-05-29T08:35:25;99538.84;;;25.86;24.13
43115;BME280;28727;50.068;14.452;2023-05-29T08:37:57;99537.25;;;26.00;24.52
43115;BME280;28727;50.068;14.452;2023-05-29T08:40:29;99543.47;;;25.95;23.81
43115;BME280;28727;50.068;14.452;2023-05-29T08:43:21;99536.44;;;25.99;24.26
43115;BME280;28727;50.068;14.452;2023-05-29T08:45:55;99536.91;;;26.43;23.30
43115;BME280;28727;50.068;14.452;2023-05-29T08:48:29;99542.59;;;26.57;23.62
43115;BME280;28727;50.068;14.452;2023-05-29T08:51:02;99537.97;;;26.37;23.72
43115;BME280;28727;50.068;14.452;2023-05-29T08:53:35;99540.09;;;26.30;23.33
43115;BME280;28727;50.068;14.452;2023-05-29T08:56:08;99540.56;;;26.17;23.74
43115;BME280;28727;50.068;14.452;2023-05-29T08:58:48;99535.84;;;26.65;23.07
43115;BME280;28727;50.068;14.452;2023-05-29T09:01:21;99535.88;;;26.95;22.19
43115;BME280;28727;50.068;14.452;2023-05-29T09:03:54;99539.41;;;26.96;22.67
43115;BME280;28727;50.068;14.452;2023-05-29T09:06:26;99534.75;;;26.71;22.73
43115;BME280;28727;50.068;14.452;2023-05-29T09:08:58;99542.56;;;26.47;22.80
43115;BME280;28727;50.068;14.452;2023-05-29T09:11:30;99540.13;;;26.40;22.35
43115;BME280;28727;50.068;14.452;2023-05-29T09:14:02;99543.06;;;26.29;22.36
43115;BME280;28727;50.068;14.452;2023-05-29T09:16:41;99540.34;;;26.24;22.62
43115;BME280;28727;50.068;14.452;2023-05-29T09:19:14;99538.47;;;26.29;22.28
43115;BME280;28727;50.068;14.452;2023-05-29T09:21:48;99542.19;;;26.13;22.29
43115;BME280;28727;50.068;14.452;2023-05-29T09:24:19;99550.31;;;26.08;23.01
43115;BME280;28727;50.068;14.452;2023-05-29T09:26:51;99539.47;;;26.13;22.81
43115;BME280;28727;50.068;14.452;2023-05-29T09:29:23;99538.09;;;26.05;23.21
43115;BME280;28727;50.068;14.452;2023-05-29T09:31:55;99537.16;;;26.37;23.06
43115;BME280;28727;50.068;14.452;2023-05-29T09:34:30;99535.56;;;26.61;22.98
43115;BME280;28727;50.068;14.452;2023-05-29T09:37:07;99540.44;;;26.69;22.33
43115;BME280;28727;50.068;14.452;2023-05-29T09:39:50;99544.53;;;26.67;22.17
43115;BME280;28727;50.068;14.452;2023-05-29T09:42:25;99544.72;;;26.40;22.52
43115;BME280;28727;50.068;14.452;2023-05-29T09:44:59;99541.00;;;26.56;22.67
43115;BME280;28727;50.068;14.452;2023-05-29T09:47:33;99538.31;;;27.22;22.51
43115;BME280;28727;50.068;14.452;2023-05-29T09:50:05;99549.19;;;27.07;21.95
43115;BME280;28727;50.068;14.452;2023-05-29T09:52:39;99535.56;;;26.86;21.81
43115;BME280;28727;50.068;14.452;2023-05-29T09:55:11;99535.88;;;27.05;21.80
43115;BME280;28727;50.068;14.452;2023-05-29T09:57:42;99534.75;;;27.52;21.64
43115;BME280;28727;50.068;14.452;2023-05-29T10:00:17;99526.25;;;27.84;20.89
43115;BME280;28727;50.068;14.452;2023-05-29T10:02:49;99537.44;;;27.67;21.35
43115;BME280;28727;50.068;14.452;2023-05-29T10:05:21;99546.16;;;27.54;21.36
43115;BME280;28727;50.068;14.452;2023-05-29T10:07:53;99544.31;;;27.09;21.87
43115;BME280;28727;50.068;14.452;2023-05-29T10:10:26;99539.69;;;26.94;21.73
43115;BME280;28727;50.068;14.452;2023-05-29T10:13:01;99532.91;;;26.97;22.17
43115;BME280;28727;50.068;14.452;2023-05-29T10:15:35;99533.41;;;27.49;22.14
43115;BME280;28727;50.068;14.452;2023-05-29T10:18:38;99522.72;;;27.83;21.59
43115;BME280;28727;50.068;14.452;2023-05-29T10:21:12;99521.03;;;28.51;21.66
43115;BME280;28727;50.068;14.452;2023-05-29T10:23:47;99530.44;;;28.69;20.41
43115;BME280;28727;50.068;14.452;2023-05-29T10:26:27;99531.81;;;28.23;20.87
43115;BME280;28727;50.068;14.452;2023-05-29T10:37:04;99531.50;;;27.35;22.19
43115;BME280;28727;50.068;14.452;2023-05-29T10:39:37;99532.34;;;27.20;22.49
43115;BME280;28727;50.068;14.452;2023-05-29T10:45:11;99508.13;;;27.74;22.15
43115;BME280;28727;50.068;14.452;2023-05-29T10:47:43;99518.69;;;27.70;21.25
43115;BME280;28727;50.068;14.452;2023-05-29T10:50:37;99525.59;;;27.07;21.81
43115;BME280;28727;50.068;14.452;2023-05-29T10:53:17;99521.78;;;26.88;22.19
43115;BME280;28727;50.068;14.452;2023-05-29T10:55:51;99513.63;;;27.28;21.68
43115;BME280;28727;50.068;14.452;2023-05-29T10:58:25;99506.22;;;27.64;21.89
43115;BME280;28727;50.068;14.452;2023-05-29T11:00:57;99507.78;;;27.81;21.75
43115;BME280;28727;50.068;14.452;2023-05-29T11:03:31;99491.88;;;27.49;21.64
43115;BME280;28727;50.068;14.452;2023-05-29T11:06:05;99492.50;;;27.15;22.52
43115;BME280;28727;50.068;14.452;2023-05-29T11:08:46;99489.19;;;27.34;22.23
43115;BME280;28727;50.068;14.452;2023-05-29T11:14:06;99491.31;;;27.62;22.41
43115;BME280;28727;50.068;14.452;2023-05-29T11:16:38;99488.81;;;27.76;22.68
43115;BME280;28727;50.068;14.452;2023-05-29T11:19:10;99488.34;;;27.58;22.53
43115;BME280;28727;50.068;14.452;2023-05-29T11:22:05;99482.31;;;27.72;22.15
43115;BME280;28727;50.068;14.452;2023-05-29T11:24:39;99483.91;;;27.83;22.14
43115;BME280;28727;50.068;14.452;2023-05-29T11:27:12;99485.78;;;27.87;22.58
43115;BME280;28727;50.068;14.452;2023-05-29T11:29:44;99492.84;;;27.88;22.68
43115;BME280;28727;50.068;14.452;2023-05-29T11:32:17;99482.78;;;27.89;21.92
43115;BME280;28727;50.068;14.452;2023-05-29T11:34:50;99486.34;;;27.84;22.26
43115;BME280;28727;50.068;14.452;2023-05-29T11:37:23;99488.50;;;27.82;22.15
43115;BME280;28727;50.068;14.452;2023-05-29T11:39:58;99487.94;;;27.90;22.14
43115;BME280;28727;50.068;14.452;2023-05-29T11:42:30;99484.25;;;27.61;22.48
43115;BME280;28727;50.068;14.452;2023-05-29T11:47:57;99487.84;;;27.26;22.39
43115;BME280;28727;50.068;14.452;2023-05-29T11:50:33;99483.72;;;27.49;22.08
43115;BME280;28727;50.068;14.452;2023-05-29T11:53:06;99478.84;;;27.61;22.45
43115;BME280;28727;50.068;14.452;2023-05-29T11:55:39;99483.72;;;27.49;22.50
43115;BME280;28727;50.068;14.452;2023-05-29T11:58:11;99476.72;;;27.38;21.56
43115;BME280;28727;50.068;14.452;2023-05-29T12:00:44;99471.28;;;27.27;21.66
43115;BME280;28727;50.068;14.452;2023-05-29T12:03:21;99464.78;;;27.23;21.20
43115;BME280;28727;50.068;14.452;2023-05-29T12:05:54;99471.56;;;27.31;20.76
43115;BME280;28727;50.068;14.452;2023-05-29T12:08:27;99472.97;;;27.13;21.40
43115;BME280;28727;50.068;14.452;2023-05-29T12:10:59;99459.13;;;27.05;21.40
43115;BME280;28727;50.068;14.452;2023-05-29T12:13:31;99471.88;;;26.99;21.20
43115;BME280;28727;50.068;14.452;2023-05-29T12:16:04;99476.25;;;26.90;21.22
43115;BME280;28727;50.068;14.452;2023-05-29T12:18:37;99458.59;;;26.72;21.38
43115;BME280;28727;50.068;14.452;2023-05-29T12:21:10;99458.88;;;26.61;21.57
43115;BME280;28727;50.068;14.452;2023-05-29T12:23:42;99461.59;;;26.56;22.13
43115;BME280;28727;50.068;14.452;2023-05-29T12:26:14;99460.72;;;26.45;22.29
43115;BME280;28727;50.068;14.452;2023-05-29T12:28:48;99456.94;;;26.26;22.20
43115;BME280;28727;50.068;14.452;2023-05-29T12:31:30;99456.34;;;26.14;22.30
43115;BME280;28727;50.068;14.452;2023-05-29T12:34:08;99456.59;;;26.12;22.58
43115;BME280;28727;50.068;14.452;2023-05-29T12:36:42;99462.84;;;26.13;22.37
43115;BME280;28727;50.068;14.452;2023-05-29T12:39:16;99459.06;;;26.19;22.23
43115;BME280;28727;50.068;14.452;2023-05-29T12:41:48;99459.91;;;26.39;22.57
43115;BME280;28727;50.068;14.452;2023-05-29T12:44:23;99455.31;;;26.40;22.34
43115;BME280;28727;50.068;14.452;2023-05-29T12:46:58;99447.47;;;26.38;22.88
43115;BME280;28727;50.068;14.452;2023-05-29T12:49:30;99458.28;;;26.28;22.36
43115;BME280;28727;50.068;14.452;2023-05-29T12:52:06;99446.59;;;26.18;22.86
43115;BME280;28727;50.068;14.452;2023-05-29T12:54:39;99447.41;;;26.13;22.91
43115;BME280;28727;50.068;14.452;2023-05-29T12:57:11;99448.75;;;26.10;23.05
43115;BME280;28727;50.068;14.452;2023-05-29T12:59:43;99453.59;;;25.98;23.29
43115;BME280;28727;50.068;14.452;2023-05-29T13:02:15;99448.72;;;26.00;23.28
43115;BME280;28727;50.068;14.452;2023-05-29T13:04:47;99443.06;;;26.07;23.34
43115;BME280;28727;50.068;14.452;2023-05-29T13:07:21;99445.50;;;26.08;23.44
43115;BME280;28727;50.068;14.452;2023-05-29T13:09:53;99429.53;;;26.17;23.71
43115;BME280;28727;50.068;14.452;2023-05-29T13:12:25;99433.38;;;26.36;23.86
43115;BME280;28727;50.068;14.452;2023-05-29T13:14:57;99423.34;;;26.52;23.56
43115;BME280;28727;50.068;14.452;2023-05-29T13:17:28;99425.00;;;26.73;23.12
43115;BME280;28727;50.068;14.452;2023-05-29T13:20:01;99426.59;;;26.74;23.40
43115;BME280;28727;50.068;14.452;2023-05-29T13:22:32;99406.28;;;26.41;23.04
43115;BME280;28727;50.068;14.452;2023-05-29T13:25:05;99426.00;;;26.06;23.91
43115;BME280;28727;50.068;14.452;2023-05-29T13:27:40;99414.31;;;25.86;23.67
43115;BME280;28727;50.068;14.452;2023-05-29T13:30:13;99418.41;;;26.03;23.64
43115;BME280;28727;50.068;14.452;2023-05-29T13:32:45;99413.78;;;25.99;23.70
43115;BME280;28727;50.068;14.452;2023-05-29T13:35:20;99411.63;;;26.06;24.19
43115;BME280;28727;50.068;14.452;2023-05-29T13:37:52;99408.41;;;26.09;24.88
43115;BME280;28727;50.068;14.452;2023-05-29T13:40:25;99408.41;;;26.19;24.68
43115;BME280;28727;50.068;14.452;2023-05-29T13:42:57;99394.06;;;26.19;24.42
43115;BME280;28727;50.068;14.452;2023-05-29T13:45:29;99398.91;;;26.22;25.02
43115;BME280;28727;50.068;14.452;2023-05-29T13:48:02;99398.44;;;26.30;24.65
43115;BME280;28727;50.068;14.452;2023-05-29T13:50:34;99389.78;;;26.43;24.62
43115;BME280;28727;50.068;14.452;2023-05-29T13:53:07;99375.66;;;26.46;24.14
43115;BME280;28727;50.068;14.452;2023-05-29T13:55:39;99386.78;;;26.49;24.40